sensor_id;sensor_type;location;lat;lon;timestamp;temperature;humidity
50560;DHT22;36510;52.610;13.468;2022-10-30T00:04:38;16.50;54.40
50560;DHT22;36510;52.610;13.468;2022-10-30T00:09:28;16.50;53.30
50560;DHT22;36510;52.610;13.468;2022-10-30T00:14:18;16.50;52.90
50560;DHT22;36510;52.610;13.468;2022-10-30T00:19:09;16.60;54.80
50560;DHT22;36510;52.610;13.468;2022-10-30T00:23:59;16.60;55.10
50560;DHT22;36510;52.610;13.468;2022-10-30T00:28:51;16.60;55.10
50560;DHT22;36510;52.610;13.468;2022-10-30T00:33:42;16.70;55.20
50560;DHT22;36510;52.610;13.468;2022-10-30T00:38:33;16.70;54.70
50560;DHT22;36510;52.610;13.468;2022-10-30T00:43:30;16.70;55.00
50560;DHT22;36510;52.610;13.468;2022-10-30T00:48:24;16.70;55.00
50560;DHT22;36510;52.610;13.468;2022-10-30T00:53:17;16.70;54.50
50560;DHT22;36510;52.610;13.468;2022-10-30T00:58:13;16.70;52.20
50560;DHT22;36510;52.610;13.468;2022-10-30T01:03:05;16.60;51.60
50560;DHT22;36510;52.610;13.468;2022-10-30T01:07:55;16.50;51.50
50560;DHT22;36510;52.610;13.468;2022-10-30T01:12:46;16.40;52.70
50560;DHT22;36510;52.610;13.468;2022-10-30T01:28:14;16.40;54.70
50560;DHT22;36510;52.610;13.468;2022-10-30T01:38:16;16.40;52.60
50560;DHT22;36510;52.610;13.468;2022-10-30T01:43:10;16.30;53.80
50560;DHT22;36510;52.610;13.468;2022-10-30T01:48:23;16.30;54.40
50560;DHT22;36510;52.610;13.468;2022-10-30T01:53:44;16.40;53.50
50560;DHT22;36510;52.610;13.468;2022-10-30T01:58:47;16.40;52.20
50560;DHT22;36510;52.610;13.468;2022-10-30T02:03:39;16.30;49.70
50560;DHT22;36510;52.610;13.468;2022-10-30T02:08:30;16.20;49.40
50560;DHT22;36510;52.610;13.468;2022-10-30T02:13:22;16.00;48.00
50560;DHT22;36510;52.610;13.468;2022-10-30T02:18:12;15.80;48.40
50560;DHT22;36510;52.610;13.468;2022-10-30T02:23:03;15.70;49.40
50560;DHT22;36510;52.610;13.468;2022-10-30T02:27:54;15.60;48.90
50560;DHT22;36510;52.610;13.468;2022-10-30T02:32:44;15.50;47.90
50560;DHT22;36510;52.610;13.468;2022-10-30T02:37:35;15.40;48.30
50560;DHT22;36510;52.610;13.468;2022-10-30T02:42:25;15.40;48.10
50560;DHT22;36510;52.610;13.468;2022-10-30T02:47:16;15.10;47.60
50560;DHT22;36510;52.610;13.468;2022-10-30T02:52:07;14.90;48.60
50560;DHT22;36510;52.610;13.468;2022-10-30T02:56:58;14.80;50.90
50560;DHT22;36510;52.610;13.468;2022-10-30T03:01:48;14.80;51.50
50560;DHT22;36510;52.610;13.468;2022-10-30T03:06:39;14.90;50.80
50560;DHT22;36510;52.610;13.468;2022-10-30T03:11:29;14.90;49.40
50560;DHT22;36510;52.610;13.468;2022-10-30T03:16:22;14.90;47.20
50560;DHT22;36510;52.610;13.468;2022-10-30T03:21:16;14.70;48.10
50560;DHT22;36510;52.610;13.468;2022-10-30T03:26:08;14.50;49.90
50560;DHT22;36510;52.610;13.468;2022-10-30T03:31:04;14.40;50.40
50560;DHT22;36510;52.610;13.468;2022-10-30T03:35:55;14.50;51.40
50560;DHT22;36510;52.610;13.468;2022-10-30T03:40:45;14.50;50.50
50560;DHT22;36510;52.610;13.468;2022-10-30T03:45:37;14.60;50.60
50560;DHT22;36510;52.610;13.468;2022-10-30T03:50:27;14.70;50.70
50560;DHT22;36510;52.610;13.468;2022-10-30T03:55:18;14.80;50.80
50560;DHT22;36510;52.610;13.468;2022-10-30T04:00:09;14.80;50.50
50560;DHT22;36510;52.610;13.468;2022-10-30T04:04:59;14.90;50.50
50560;DHT22;36510;52.610;13.468;2022-10-30T04:09:50;15.00;50.10
50560;DHT22;36510;52.610;13.468;2022-10-30T04:14:40;15.10;49.80
50560;DHT22;36510;52.610;13.468;2022-10-30T04:19:31;15.10;50.00
50560;DHT22;36510;52.610;13.468;2022-10-30T04:24:21;15.10;50.30
50560;DHT22;36510;52.610;13.468;2022-10-30T04:29:12;15.10;50.40
50560;DHT22;36510;52.610;13.468;2022-10-30T04:34:03;15.10;50.90
50560;DHT22;36510;52.610;13.468;2022-10-30T04:38:53;15.10;51.40
50560;DHT22;36510;52.610;13.468;2022-10-30T04:43:43;15.00;50.60
50560;DHT22;36510;52.610;13.468;2022-10-30T04:48:34;15.00;51.90
50560;DHT22;36510;52.610;13.468;2022-10-30T04:53:26;15.00;52.80
50560;DHT22;36510;52.610;13.468;2022-10-30T04:58:16;15.00;53.30
50560;DHT22;36510;52.610;13.468;2022-10-30T05:03:09;14.90;54.80
50560;DHT22;36510;52.610;13.468;2022-10-30T05:08:05;14.90;54.50
50560;DHT22;36510;52.610;13.468;2022-10-30T05:12:55;14.80;54.60
50560;DHT22;36510;52.610;13.468;2022-10-30T05:17:50;14.80;54.60
50560;DHT22;36510;52.610;13.468;2022-10-30T05:22:40;14.70;59.60
50560;DHT22;36510;52.610;13.468;2022-10-30T05:27:31;14.60;62.00
50560;DHT22;36510;52.610;13.468;2022-10-30T05:32:21;14.50;65.40
50560;DHT22;36510;52.610;13.468;2022-10-30T05:37:12;14.50;66.80
50560;DHT22;36510;52.610;13.468;2022-10-30T05:42:02;14.60;66.00
50560;DHT22;36510;52.610;13.468;2022-10-30T05:46:53;14.70;67.00
50560;DHT22;36510;52.610;13.468;2022-10-30T05:51:44;14.70;66.50
50560;DHT22;36510;52.610;13.468;2022-10-30T05:56:34;14.80;65.70
50560;DHT22;36510;52.610;13.468;2022-10-30T06:01:25;14.80;66.50
50560;DHT22;36510;52.610;13.468;2022-10-30T06:06:15;14.90;67.10
50560;DHT22;36510;52.610;13.468;2022-10-30T06:11:06;15.00;66.80
50560;DHT22;36510;52.610;13.468;2022-10-30T06:15:56;15.10;65.50
50560;DHT22;36510;52.610;13.468;2022-10-30T06:20:47;15.20;65.30
50560;DHT22;36510;52.610;13.468;2022-10-30T06:25:37;15.30;63.90
50560;DHT22;36510;52.610;13.468;2022-10-30T06:30:28;15.40;63.00
50560;DHT22;36510;52.610;13.468;2022-10-30T06:35:19;15.50;62.40
50560;DHT22;36510;52.610;13.468;2022-10-30T06:40:10;15.50;62.20
50560;DHT22;36510;52.610;13.468;2022-10-30T06:45:00;15.60;61.30
50560;DHT22;36510;52.610;13.468;2022-10-30T06:49:51;15.60;61.10
50560;DHT22;36510;52.610;13.468;2022-10-30T06:54:41;15.60;60.90
50560;DHT22;36510;52.610;13.468;2022-10-30T06:59:32;15.70;60.50
50560;DHT22;36510;52.610;13.468;2022-10-30T07:04:22;15.80;60.60
50560;DHT22;36510;52.610;13.468;2022-10-30T07:09:12;15.80;60.50
50560;DHT22;36510;52.610;13.468;2022-10-30T07:14:03;15.80;60.60
50560;DHT22;36510;52.610;13.468;2022-10-30T07:18:53;15.80;61.30
50560;DHT22;36510;52.610;13.468;2022-10-30T07:23:45;15.80;61.50
50560;DHT22;36510;52.610;13.468;2022-10-30T07:28:35;15.90;61.60
50560;DHT22;36510;52.610;13.468;2022-10-30T07:33:26;15.90;61.40
50560;DHT22;36510;52.610;13.468;2022-10-30T07:38:16;16.00;61.40
50560;DHT22;36510;52.610;13.468;2022-10-30T07:43:07;16.00;61.20
50560;DHT22;36510;52.610;13.468;2022-10-30T07:47:59;16.10;61.00
50560;DHT22;36510;52.610;13.468;2022-10-30T07:52:50;16.20;61.20
50560;DHT22;36510;52.610;13.468;2022-10-30T07:57:41;16.20;62.10
50560;DHT22;36510;52.610;13.468;2022-10-30T08:02:31;16.10;62.60
50560;DHT22;36510;52.610;13.468;2022-10-30T08:07:22;16.10;63.50
50560;DHT22;36510;52.610;13.468;2022-10-30T08:12:12;16.10;64.10
50560;DHT22;36510;52.610;13.468;2022-10-30T08:17:03;16.10;62.80
50560;DHT22;36510;52.610;13.468;2022-10-30T08:21:54;16.30;62.70
50560;DHT22;36510;52.610;13.468;2022-10-30T08:26:46;16.40;62.40
50560;DHT22;36510;52.610;13.468;2022-10-30T08:31:36;16.50;61.80
50560;DHT22;36510;52.610;13.468;2022-10-30T08:36:26;16.60;60.90
50560;DHT22;36510;52.610;13.468;2022-10-30T08:41:17;16.50;61.10
50560;DHT22;36510;52.610;13.468;2022-10-30T08:46:07;16.70;61.60
50560;DHT22;36510;52.610;13.468;2022-10-30T08:50:58;16.80;61.20
50560;DHT22;36510;52.610;13.468;2022-10-30T08:55:50;17.00;59.00
50560;DHT22;36510;52.610;13.468;2022-10-30T09:00:41;17.10;57.80
50560;DHT22;36510;52.610;13.468;2022-10-30T09:05:31;17.20;57.50
50560;DHT22;36510;52.610;13.468;2022-10-30T09:10:22;17.20;56.40
50560;DHT22;36510;52.610;13.468;2022-10-30T09:15:12;17.40;56.00
50560;DHT22;36510;52.610;13.468;2022-10-30T09:20:03;17.40;55.60
50560;DHT22;36510;52.610;13.468;2022-10-30T09:24:54;17.50;54.90
50560;DHT22;36510;52.610;13.468;2022-10-30T09:29:44;17.70;53.40
50560;DHT22;36510;52.610;13.468;2022-10-30T09:34:35;17.90;52.50
50560;DHT22;36510;52.610;13.468;2022-10-30T09:39:27;18.00;50.90
50560;DHT22;36510;52.610;13.468;2022-10-30T09:49:43;18.30;48.30
50560;DHT22;36510;52.610;13.468;2022-10-30T10:05:20;18.50;46.80
50560;DHT22;36510;52.610;13.468;2022-10-30T10:10:36;18.60;47.20
50560;DHT22;36510;52.610;13.468;2022-10-30T10:15:36;18.80;46.30
50560;DHT22;36510;52.610;13.468;2022-10-30T10:20:35;18.90;45.80
50560;DHT22;36510;52.610;13.468;2022-10-30T10:25:29;19.00;43.70
50560;DHT22;36510;52.610;13.468;2022-10-30T10:30:22;19.20;42.70
50560;DHT22;36510;52.610;13.468;2022-10-30T10:35:36;19.20;42.40
50560;DHT22;36510;52.610;13.468;2022-10-30T10:40:53;19.40;41.80
50560;DHT22;36510;52.610;13.468;2022-10-30T10:51:19;19.80;39.10
50560;DHT22;36510;52.610;13.468;2022-10-30T10:56:11;19.90;38.30
50560;DHT22;36510;52.610;13.468;2022-10-30T11:01:04;19.90;38.80
50560;DHT22;36510;52.610;13.468;2022-10-30T11:11:06;20.30;36.20
50560;DHT22;36510;52.610;13.468;2022-10-30T11:21:44;20.40;33.00
50560;DHT22;36510;52.610;13.468;2022-10-30T11:26:35;20.50;34.10
50560;DHT22;36510;52.610;13.468;2022-10-30T11:31:28;20.60;32.40
50560;DHT22;36510;52.610;13.468;2022-10-30T11:36:24;20.90;28.40
50560;DHT22;36510;52.610;13.468;2022-10-30T11:41:15;21.00;26.80
50560;DHT22;36510;52.610;13.468;2022-10-30T11:46:09;21.30;27.00
50560;DHT22;36510;52.610;13.468;2022-10-30T11:51:02;21.30;25.60
50560;DHT22;36510;52.610;13.468;2022-10-30T11:55:52;21.50;24.00
50560;DHT22;36510;52.610;13.468;2022-10-30T12:00:43;21.60;24.30
50560;DHT22;36510;52.610;13.468;2022-10-30T12:05:40;21.80;23.50
50560;DHT22;36510;52.610;13.468;2022-10-30T12:10:33;21.90;22.70
50560;DHT22;36510;52.610;13.468;2022-10-30T12:15:26;22.10;22.10
50560;DHT22;36510;52.610;13.468;2022-10-30T12:20:17;22.30;21.90
50560;DHT22;36510;52.610;13.468;2022-10-30T12:25:34;22.40;21.90
50560;DHT22;36510;52.610;13.468;2022-10-30T12:30:27;22.40;20.10
50560;DHT22;36510;52.610;13.468;2022-10-30T12:35:38;22.50;20.10
50560;DHT22;36510;52.610;13.468;2022-10-30T12:40:34;22.70;20.70
50560;DHT22;36510;52.610;13.468;2022-10-30T12:45:41;22.90;18.90
50560;DHT22;36510;52.610;13.468;2022-10-30T12:50:45;22.80;19.20
50560;DHT22;36510;52.610;13.468;2022-10-30T12:55:50;23.00;17.50
50560;DHT22;36510;52.610;13.468;2022-10-30T13:00:56;23.00;18.30
50560;DHT22;36510;52.610;13.468;2022-10-30T13:05:53;23.10;17.90
50560;DHT22;36510;52.610;13.468;2022-10-30T13:10:48;23.20;19.10
50560;DHT22;36510;52.610;13.468;2022-10-30T13:15:55;23.00;18.50
50560;DHT22;36510;52.610;13.468;2022-10-30T13:21:13;23.00;18.30
50560;DHT22;36510;52.610;13.468;2022-10-30T13:26:19;22.80;18.60
50560;DHT22;36510;52.610;13.468;2022-10-30T13:36:37;22.60;20.60
50560;DHT22;36510;52.610;13.468;2022-10-30T13:41:41;22.40;19.80
50560;DHT22;36510;52.610;13.468;2022-10-30T13:46:57;22.30;20.20
50560;DHT22;36510;52.610;13.468;2022-10-30T13:52:03;22.30;19.80
50560;DHT22;36510;52.610;13.468;2022-10-30T13:56:55;22.20;21.00
50560;DHT22;36510;52.610;13.468;2022-10-30T14:07:29;22.10;20.50
50560;DHT22;36510;52.610;13.468;2022-10-30T14:17:30;21.90;21.50
50560;DHT22;36510;52.610;13.468;2022-10-30T14:22:22;21.80;21.50
50560;DHT22;36510;52.610;13.468;2022-10-30T14:27:26;21.70;21.50
50560;DHT22;36510;52.610;13.468;2022-10-30T14:37:07;21.60;22.60
50560;DHT22;36510;52.610;13.468;2022-10-30T14:42:06;21.40;25.10
50560;DHT22;36510;52.610;13.468;2022-10-30T14:52:42;21.20;26.50
50560;DHT22;36510;52.610;13.468;2022-10-30T14:57:50;21.00;28.40
50560;DHT22;36510;52.610;13.468;2022-10-30T15:07:59;20.60;29.90
50560;DHT22;36510;52.610;13.468;2022-10-30T15:13:15;20.40;30.60
50560;DHT22;36510;52.610;13.468;2022-10-30T15:18:13;20.30;31.40
50560;DHT22;36510;52.610;13.468;2022-10-30T15:23:09;20.10;32.50
50560;DHT22;36510;52.610;13.468;2022-10-30T15:28:01;19.90;33.30
50560;DHT22;36510;52.610;13.468;2022-10-30T15:32:52;19.80;34.00
50560;DHT22;36510;52.610;13.468;2022-10-30T15:38:05;19.60;34.50
50560;DHT22;36510;52.610;13.468;2022-10-30T15:42:58;19.50;35.00
50560;DHT22;36510;52.610;13.468;2022-10-30T15:48:11;19.40;34.90
50560;DHT22;36510;52.610;13.468;2022-10-30T15:53:12;19.40;34.90
50560;DHT22;36510;52.610;13.468;2022-10-30T15:58:04;19.30;34.80
50560;DHT22;36510;52.610;13.468;2022-10-30T16:03:02;19.20;34.70
50560;DHT22;36510;52.610;13.468;2022-10-30T16:07:54;19.00;35.40
50560;DHT22;36510;52.610;13.468;2022-10-30T16:12:46;18.70;36.10
50560;DHT22;36510;52.610;13.468;2022-10-30T16:17:37;18.40;37.40
50560;DHT22;36510;52.610;13.468;2022-10-30T16:22:32;18.30;38.20
50560;DHT22;36510;52.610;13.468;2022-10-30T16:27:25;18.30;38.20
50560;DHT22;36510;52.610;13.468;2022-10-30T16:32:19;18.30;38.00
50560;DHT22;36510;52.610;13.468;2022-10-30T16:37:17;18.30;37.50
50560;DHT22;36510;52.610;13.468;2022-10-30T16:42:22;18.30;37.40
50560;DHT22;36510;52.610;13.468;2022-10-30T16:47:23;18.10;36.80
50560;DHT22;36510;52.610;13.468;2022-10-30T16:52:15;18.10;37.30
50560;DHT22;36510;52.610;13.468;2022-10-30T16:57:15;17.90;37.30
50560;DHT22;36510;52.610;13.468;2022-10-30T17:02:15;17.90;36.90
50560;DHT22;36510;52.610;13.468;2022-10-30T17:07:16;17.90;36.70
50560;DHT22;36510;52.610;13.468;2022-10-30T17:12:18;17.80;36.50
50560;DHT22;36510;52.610;13.468;2022-10-30T17:17:32;17.70;36.70
50560;DHT22;36510;52.610;13.468;2022-10-30T17:22:24;17.60;37.10
50560;DHT22;36510;52.610;13.468;2022-10-30T17:27:36;17.40;37.20
50560;DHT22;36510;52.610;13.468;2022-10-30T17:32:42;17.30;37.40
50560;DHT22;36510;52.610;13.468;2022-10-30T17:37:32;17.20;38.00
50560;DHT22;36510;52.610;13.468;2022-10-30T17:42:23;17.10;38.30
50560;DHT22;36510;52.610;13.468;2022-10-30T17:47:16;17.10;37.90
50560;DHT22;36510;52.610;13.468;2022-10-30T17:52:10;17.10;37.20
50560;DHT22;36510;52.610;13.468;2022-10-30T17:57:02;17.00;37.40
50560;DHT22;36510;52.610;13.468;2022-10-30T18:01:52;17.00;37.10
50560;DHT22;36510;52.610;13.468;2022-10-30T18:06:42;17.00;36.90
50560;DHT22;36510;52.610;13.468;2022-10-30T18:11:33;17.00;36.60
50560;DHT22;36510;52.610;13.468;2022-10-30T18:16:24;16.90;36.40
50560;DHT22;36510;52.610;13.468;2022-10-30T18:21:17;16.80;36.20
50560;DHT22;36510;52.610;13.468;2022-10-30T18:26:13;16.70;36.60
50560;DHT22;36510;52.610;13.468;2022-10-30T18:31:04;16.60;36.60
50560;DHT22;36510;52.610;13.468;2022-10-30T18:35:57;16.40;37.50
50560;DHT22;36510;52.610;13.468;2022-10-30T18:40:48;16.30;37.80
50560;DHT22;36510;52.610;13.468;2022-10-30T18:45:40;16.30;38.00
50560;DHT22;36510;52.610;13.468;2022-10-30T18:50:33;16.20;38.00
50560;DHT22;36510;52.610;13.468;2022-10-30T18:55:34;16.30;37.80
50560;DHT22;36510;52.610;13.468;2022-10-30T19:00:25;16.20;37.10
50560;DHT22;36510;52.610;13.468;2022-10-30T19:10:15;16.20;37.30
50560;DHT22;36510;52.610;13.468;2022-10-30T19:15:16;16.10;36.60
50560;DHT22;36510;52.610;13.468;2022-10-30T19:20:07;16.10;37.50
50560;DHT22;36510;52.610;13.468;2022-10-30T19:24:57;16.10;36.40
50560;DHT22;36510;52.610;13.468;2022-10-30T19:29:48;16.00;36.00
50560;DHT22;36510;52.610;13.468;2022-10-30T19:34:38;16.00;36.10
50560;DHT22;36510;52.610;13.468;2022-10-30T19:39:34;15.90;35.40
50560;DHT22;36510;52.610;13.468;2022-10-30T19:44:25;15.90;35.90
50560;DHT22;36510;52.610;13.468;2022-10-30T19:49:17;15.90;35.60
50560;DHT22;36510;52.610;13.468;2022-10-30T19:54:08;15.80;35.30
50560;DHT22;36510;52.610;13.468;2022-10-30T19:58:59;15.90;35.60
50560;DHT22;36510;52.610;13.468;2022-10-30T20:03:49;15.80;35.20
50560;DHT22;36510;52.610;13.468;2022-10-30T20:08:40;15.80;35.30
50560;DHT22;36510;52.610;13.468;2022-10-30T20:13:30;15.70;34.70
50560;DHT22;36510;52.610;13.468;2022-10-30T20:18:25;15.50;35.50
50560;DHT22;36510;52.610;13.468;2022-10-30T20:23:18;15.40;35.20
50560;DHT22;36510;52.610;13.468;2022-10-30T20:28:36;15.40;35.90
50560;DHT22;36510;52.610;13.468;2022-10-30T20:33:27;15.20;37.20
50560;DHT22;36510;52.610;13.468;2022-10-30T20:38:20;14.90;39.30
50560;DHT22;36510;52.610;13.468;2022-10-30T20:43:15;14.90;39.90
50560;DHT22;36510;52.610;13.468;2022-10-30T20:48:05;14.80;38.90
50560;DHT22;36510;52.610;13.468;2022-10-30T20:52:56;14.80;38.50
50560;DHT22;36510;52.610;13.468;2022-10-30T20:57:46;14.80;38.30
50560;DHT22;36510;52.610;13.468;2022-10-30T21:02:37;14.80;38.00
50560;DHT22;36510;52.610;13.468;2022-10-30T21:07:28;14.90;37.10
50560;DHT22;36510;52.610;13.468;2022-10-30T21:12:20;14.90;36.70
50560;DHT22;36510;52.610;13.468;2022-10-30T21:17:11;15.00;36.00
50560;DHT22;36510;52.610;13.468;2022-10-30T21:22:01;14.90;35.30
50560;DHT22;36510;52.610;13.468;2022-10-30T21:26:52;14.90;35.00
50560;DHT22;36510;52.610;13.468;2022-10-30T21:31:42;14.90;34.80
50560;DHT22;36510;52.610;13.468;2022-10-30T21:36:33;14.80;34.30
50560;DHT22;36510;52.610;13.468;2022-10-30T21:41:23;14.70;36.00
50560;DHT22;36510;52.610;13.468;2022-10-30T21:46:14;14.60;36.40
50560;DHT22;36510;52.610;13.468;2022-10-30T21:51:10;14.50;37.00
50560;DHT22;36510;52.610;13.468;2022-10-30T21:56:06;14.50;36.80
50560;DHT22;36510;52.610;13.468;2022-10-30T22:00:57;14.40;38.00
50560;DHT22;36510;52.610;13.468;2022-10-30T22:05:48;14.10;39.20
50560;DHT22;36510;52.610;13.468;2022-10-30T22:10:38;13.80;40.40
50560;DHT22;36510;52.610;13.468;2022-10-30T22:15:29;13.70;42.80
50560;DHT22;36510;52.610;13.468;2022-10-30T22:20:19;13.80;41.70
50560;DHT22;36510;52.610;13.468;2022-10-30T22:25:09;14.00;40.30
50560;DHT22;36510;52.610;13.468;2022-10-30T22:30:00;14.10;38.90
50560;DHT22;36510;52.610;13.468;2022-10-30T22:34:50;14.20;38.00
50560;DHT22;36510;52.610;13.468;2022-10-30T22:39:41;14.30;37.00
50560;DHT22;36510;52.610;13.468;2022-10-30T22:44:31;14.30;36.20
50560;DHT22;36510;52.610;13.468;2022-10-30T22:49:22;14.20;35.90
50560;DHT22;36510;52.610;13.468;2022-10-30T22:54:12;14.10;36.20
50560;DHT22;36510;52.610;13.468;2022-10-30T22:59:09;14.10;35.50
50560;DHT22;36510;52.610;13.468;2022-10-30T23:04:01;14.00;36.40
50560;DHT22;36510;52.610;13.468;2022-10-30T23:08:53;14.10;36.20
50560;DHT22;36510;52.610;13.468;2022-10-30T23:13:43;14.10;35.70
50560;DHT22;36510;52.610;13.468;2022-10-30T23:18:36;14.20;35.00
50560;DHT22;36510;52.610;13.468;2022-10-30T23:23:27;14.20;34.60
50560;DHT22;36510;52.610;13.468;2022-10-30T23:28:18;14.20;34.40
50560;DHT22;36510;52.610;13.468;2022-10-30T23:33:09;14.20;33.90
50560;DHT22;36510;52.610;13.468;2022-10-30T23:37:59;14.00;34.10
50560;DHT22;36510;52.610;13.468;2022-10-30T23:42:53;13.90;34.30
50560;DHT22;36510;52.610;13.468;2022-10-30T23:47:44;13.90;35.10
50560;DHT22;36510;52.610;13.468;2022-10-30T23:52:34;13.80;35.20
50560;DHT22;36510;52.610;13.468;2022-10-30T23:57:25;13.80;34.90
